UAE4F OMDB-NZAA
Flight info
| Callsign | UAE4F |
|---|---|
| Flight time | N/A |
| Altitude | 35000 |
| Route | ANVIX L223 TARDI N629 GIDAN P570 EMURU M300 VASTU P895 BIKOK M641 MELIN/N0496F370 M641 DOGAR DCT DAOVO DCT PIBED DCT 09S094E 10S095E DCT POROR/N0485F390 DCT 19S106E 21S109E DCT ATLOD DCT ISDOR DCT LEO/N0483F410 DCT 32S128E DCT KAMBI N640 AD V255 BENDO Y12 RELEP DCT MOMSY DCT MIKEG N759 PEBLU |
| Aircraft | A359/H-SDE2E3GHIJ3J4J5LM1ORWXY/LB1D1 |
Departure
| Time | 2026-05-07 00:19 |
|---|---|
| Airport | Dubai International Airport (OMDB) |
Arrival
| Time | N/A |
|---|---|
| Airport | Auckland International Airport (NZAA) |
| Time | Latitude | Longitude | Altitude | Speed | Heading |
|---|---|---|---|---|---|
| 2026-05-07 00:06 | 25.24364 | 55.37379 | 28 ft | 0 kts | 210° |
| 2026-05-07 00:09 | 25.24373 | 55.37384 | 28 ft | 2 kts | 206° |
| 2026-05-07 00:09 | 25.24388 | 55.37392 | 28 ft | 2 kts | 205° |
| 2026-05-07 00:10 | 25.24403 | 55.37399 | 27 ft | 2 kts | 198° |
| 2026-05-07 00:10 | 25.24419 | 55.37403 | 27 ft | 2 kts | 186° |
| 2026-05-07 00:10 | 25.24435 | 55.37403 | 25 ft | 2 kts | 158° |
| 2026-05-07 00:10 | 25.24448 | 55.37393 | 28 ft | 2 kts | 128° |
| 2026-05-07 00:11 | 25.24453 | 55.37386 | 27 ft | 0 kts | 123° |
| 2026-05-07 00:12 | 25.24447 | 55.37396 | 28 ft | 5 kts | 122° |
| 2026-05-07 00:13 | 25.24414 | 55.37455 | 28 ft | 13 kts | 122° |
| 2026-05-07 00:13 | 25.24360 | 55.37553 | 28 ft | 17 kts | 121° |
| 2026-05-07 00:13 | 25.24294 | 55.37674 | 28 ft | 19 kts | 121° |
| 2026-05-07 00:13 | 25.24287 | 55.37780 | 28 ft | 12 kts | 46° |
| 2026-05-07 00:14 | 25.24294 | 55.37851 | 28 ft | 11 kts | 111° |
| 2026-05-07 00:14 | 25.24247 | 55.37941 | 28 ft | 16 kts | 124° |
| 2026-05-07 00:14 | 25.24179 | 55.38054 | 28 ft | 19 kts | 123° |
| 2026-05-07 00:14 | 25.24103 | 55.38191 | 28 ft | 22 kts | 117° |
| 2026-05-07 00:15 | 25.24023 | 55.38350 | 28 ft | 24 kts | 120° |
| 2026-05-07 00:15 | 25.23933 | 55.38510 | 28 ft | 24 kts | 122° |
| 2026-05-07 00:15 | 25.23845 | 55.38667 | 28 ft | 24 kts | 122° |
| 2026-05-07 00:15 | 25.23759 | 55.38820 | 28 ft | 23 kts | 121° |
| 2026-05-07 00:16 | 25.23677 | 55.38971 | 28 ft | 23 kts | 121° |
| 2026-05-07 00:16 | 25.23596 | 55.39119 | 28 ft | 22 kts | 121° |
| 2026-05-07 00:16 | 25.23514 | 55.39266 | 28 ft | 22 kts | 122° |
| 2026-05-07 00:16 | 25.23438 | 55.39408 | 28 ft | 16 kts | 104° |
| 2026-05-07 00:17 | 25.23502 | 55.39458 | 28 ft | 12 kts | 25° |
| 2026-05-07 00:17 | 25.23575 | 55.39484 | 28 ft | 10 kts | 344° |
| 2026-05-07 00:17 | 25.23615 | 55.39440 | 28 ft | 0 kts | 301° |
| 2026-05-07 00:17 | 25.23615 | 55.39439 | 28 ft | 1 kts | 301° |
| 2026-05-07 00:18 | 25.23702 | 55.39283 | 28 ft | 53 kts | 302° |
| 2026-05-07 00:18 | 25.23996 | 55.38764 | 28 ft | 105 kts | 302° |
| 2026-05-07 00:18 | 25.24461 | 55.37920 | 28 ft | 150 kts | 302° |
| 2026-05-07 00:18 | 25.25085 | 55.36802 | 30 ft | 190 kts | 302° |
| 2026-05-07 00:19 | 25.25800 | 55.35531 | 480 ft | 191 kts | 302° |
| 2026-05-07 00:19 | 25.26518 | 55.34313 | 1089 ft | 185 kts | 304° |
| 2026-05-07 00:19 | 25.27276 | 55.33112 | 1444 ft | 197 kts | 306° |
| 2026-05-07 00:19 | 25.28082 | 55.31854 | 1589 ft | 210 kts | 305° |
| 2026-05-07 00:20 | 25.28894 | 55.30437 | 1681 ft | 226 kts | 295° |
| 2026-05-07 00:20 | 25.29141 | 55.28703 | 1881 ft | 235 kts | 260° |
| 2026-05-07 00:20 | 25.28607 | 55.27008 | 2340 ft | 234 kts | 246° |
| 2026-05-07 00:20 | 25.27910 | 55.25384 | 2777 ft | 235 kts | 245° |
| 2026-05-07 00:21 | 25.27196 | 55.23752 | 3241 ft | 236 kts | 245° |
| 2026-05-07 00:21 | 25.26484 | 55.22115 | 3695 ft | 237 kts | 246° |
| 2026-05-07 00:21 | 25.25776 | 55.20468 | 4177 ft | 237 kts | 245° |
| 2026-05-07 00:21 | 25.25048 | 55.18823 | 4640 ft | 238 kts | 242° |
| 2026-05-07 00:22 | 25.24003 | 55.17403 | 5012 ft | 242 kts | 217° |
| 2026-05-07 00:22 | 25.22463 | 55.16710 | 5342 ft | 249 kts | 187° |
| 2026-05-07 00:22 | 25.20695 | 55.16736 | 5746 ft | 253 kts | 176° |
| 2026-05-07 00:22 | 25.19011 | 55.17275 | 6095 ft | 261 kts | 152° |
| 2026-05-07 00:23 | 25.17670 | 55.18660 | 6335 ft | 273 kts | 124° |
| 2026-05-07 00:23 | 25.16719 | 55.20531 | 6572 ft | 284 kts | 118° |
| 2026-05-07 00:23 | 25.15819 | 55.22493 | 6969 ft | 288 kts | 118° |
| 2026-05-07 00:23 | 25.14906 | 55.24458 | 7439 ft | 289 kts | 118° |
| 2026-05-07 00:24 | 25.13975 | 55.26432 | 7916 ft | 290 kts | 118° |
| 2026-05-07 00:24 | 25.13034 | 55.28417 | 8390 ft | 293 kts | 117° |
| 2026-05-07 00:24 | 25.12084 | 55.30404 | 8922 ft | 293 kts | 117° |
| 2026-05-07 00:24 | 25.11129 | 55.32389 | 9425 ft | 293 kts | 117° |
| 2026-05-07 00:25 | 25.10185 | 55.34391 | 9925 ft | 294 kts | 114° |
| 2026-05-07 00:25 | 25.09336 | 55.36452 | 10420 ft | 295 kts | 112° |
| 2026-05-07 00:25 | 25.08507 | 55.38525 | 10933 ft | 295 kts | 112° |
| 2026-05-07 00:25 | 25.07671 | 55.40594 | 11448 ft | 296 kts | 112° |
| 2026-05-07 00:26 | 25.06830 | 55.42675 | 11959 ft | 298 kts | 111° |
| 2026-05-07 00:26 | 25.06007 | 55.44819 | 12222 ft | 310 kts | 110° |
| 2026-05-07 00:26 | 25.05173 | 55.47026 | 12429 ft | 322 kts | 110° |
| 2026-05-07 00:26 | 25.04290 | 55.49345 | 12645 ft | 334 kts | 110° |
| 2026-05-07 00:27 | 25.03372 | 55.51741 | 12861 ft | 345 kts | 111° |
| 2026-05-07 00:27 | 25.02416 | 55.54222 | 13039 ft | 356 kts | 111° |
| 2026-05-07 00:27 | 25.01273 | 55.56693 | 13238 ft | 367 kts | 118° |
| 2026-05-07 00:27 | 24.99961 | 55.59149 | 13455 ft | 376 kts | 118° |
| 2026-05-07 00:28 | 24.98609 | 55.61637 | 13778 ft | 379 kts | 119° |
| 2026-05-07 00:28 | 24.97248 | 55.64142 | 14104 ft | 382 kts | 119° |
| 2026-05-07 00:28 | 24.95892 | 55.66642 | 14423 ft | 385 kts | 119° |
| 2026-05-07 00:28 | 24.94506 | 55.69181 | 14752 ft | 388 kts | 120° |
| 2026-05-07 00:29 | 24.92976 | 55.71649 | 15088 ft | 391 kts | 124° |
| 2026-05-07 00:29 | 24.91369 | 55.74078 | 15430 ft | 394 kts | 125° |
| 2026-05-07 00:30 | 24.86470 | 55.81448 | 16444 ft | 401 kts | 125° |
| 2026-05-07 00:30 | 24.84821 | 55.83932 | 16841 ft | 402 kts | 125° |
| 2026-05-07 00:30 | 24.83171 | 55.86413 | 17253 ft | 402 kts | 125° |
| 2026-05-07 00:30 | 24.81500 | 55.88885 | 17597 ft | 405 kts | 126° |
| 2026-05-07 00:31 | 24.79801 | 55.91383 | 17851 ft | 409 kts | 126° |
| 2026-05-07 00:31 | 24.78028 | 55.93845 | 18177 ft | 412 kts | 131° |
| 2026-05-07 00:31 | 24.76053 | 55.96142 | 18455 ft | 414 kts | 135° |
| 2026-05-07 00:31 | 24.73961 | 55.98342 | 18737 ft | 417 kts | 137° |
| 2026-05-07 00:32 | 24.71840 | 56.00472 | 19020 ft | 418 kts | 138° |
| 2026-05-07 00:32 | 24.69641 | 56.02657 | 19293 ft | 421 kts | 138° |